Time;durP1;ratioP1;P1;durP2;ratioP2;P2;SDS_P1;SDS_P2;PMS_P1;PMS_P2;Temp;Humidity;BMP_temperature;BMP_pressure;BME280_temperature;BME280_humidity;BME280_pressure;Samples;Min_cycle;Max_cycle;Signal;HPM_P1;HPM_P2
2022/08/07 00:04:46;;;;;;;2.63;0.70;;;;;;;16.79;46.86;100973.81;20828687;28;20136;-66
2022/08/07 00:14:49;;;;;;;3.13;0.80;;;;;;;16.59;47.66;100975.28;20827767;28;20061;-67
2022/08/07 00:24:50;;;;;;;1.42;0.55;;;;;;;16.50;48.14;100972.06;20827576;28;20560;-67
2022/08/07 00:34:52;;;;;;;2.90;0.77;;;;;;;16.44;48.49;100962.56;20825331;28;20064;-68
2022/08/07 00:44:54;;;;;;;2.47;0.80;;;;;;;16.30;49.13;100970.91;20824818;28;20049;-68
2022/08/07 00:54:55;;;;;;;2.50;0.88;;;;;;;16.20;49.55;100971.25;20823401;28;20049;-68
2022/08/07 01:04:57;;;;;;;1.75;0.77;;;;;;;16.09;49.97;100964.47;20867090;28;20072;-68
2022/08/07 01:15:00;;;;;;;3.58;1.20;;;;;;;15.97;50.61;100974.53;20902928;28;20680;-68
2022/08/07 01:25:04;;;;;;;3.33;1.13;;;;;;;15.83;51.26;100972.28;20904763;28;20076;-68
2022/08/07 01:35:25;;;;;;;4.18;1.17;;;;;;;15.60;52.33;100983.44;20901360;28;20106;-67
2022/08/07 01:45:47;;;;;;;4.10;1.30;;;;;;;15.53;52.73;100977.47;20903171;28;20390;-67
2022/08/07 01:55:54;;;;;;;4.20;1.40;;;;;;;15.39;53.69;100977.84;20900657;28;20132;-67
2022/08/07 02:05:56;;;;;;;3.20;1.17;;;;;;;15.15;54.89;100973.22;20898905;28;20701;-67
2022/08/07 02:16:01;;;;;;;8.30;1.55;;;;;;;15.11;55.20;100959.22;20898795;28;20497;-67
2022/08/07 02:26:07;;;;;;;3.17;1.20;;;;;;;15.02;55.90;100948.91;20901715;28;20059;-67
2022/08/07 02:36:29;;;;;;;4.03;1.30;;;;;;;14.92;56.36;100938.63;20897510;28;20052;-67
2022/08/07 02:46:34;;;;;;;;;;;;;;;14.83;56.69;100932.69;20897782;28;20053;-67
2022/08/07 02:56:37;;;;;;;2.22;0.98;;;;;;;14.74;57.07;100932.03;20896072;28;20446;-67
2022/08/07 03:06:40;;;;;;;2.67;0.80;;;;;;;14.67;57.32;100917.28;20894525;28;20053;-67
2022/08/07 03:16:42;;;;;;;3.33;1.20;;;;;;;14.58;57.47;100918.38;20894835;28;20045;-67
2022/08/07 03:26:43;;;;;;;3.47;1.00;;;;;;;14.59;57.80;100918.31;20894983;28;20056;-67
2022/08/07 03:36:59;;;;;;;3.25;0.90;;;;;;;14.47;58.44;100931.78;20907422;28;20071;-66
2022/08/07 03:47:12;;;;;;;3.47;0.90;;;;;;;14.46;58.68;100943.19;20911190;28;20064;-66
2022/08/07 03:57:14;;;;;;;3.10;0.85;;;;;;;14.30;59.30;100952.34;20909329;28;20045;-67
2022/08/07 04:07:36;;;;;;;2.38;1.00;;;;;;;14.22;60.10;100959.53;20907764;28;20041;-67
2022/08/07 04:17:45;;;;;;;3.50;0.90;;;;;;;14.04;61.07;100945.03;20906437;28;20139;-67
2022/08/07 04:28:06;;;;;;;4.25;0.80;;;;;;;14.02;61.80;100958.22;20906783;28;20056;-67
2022/08/07 04:38:08;;;;;;;3.45;0.68;;;;;;;14.10;60.90;100966.81;20906051;28;20053;-66
2022/08/07 04:48:13;;;;;;;2.03;0.77;;;;;;;14.28;60.72;100972.59;20904367;28;20052;-67
2022/08/07 04:58:16;;;;;;;1.73;0.60;;;;;;;14.44;60.31;100976.63;20905340;28;20417;-67
2022/08/07 05:08:38;;;;;;;3.63;0.70;;;;;;;14.57;60.50;100988.66;20836020;28;20071;-66
2022/08/07 05:18:59;;;;;;;2.95;0.90;;;;;;;14.69;59.67;100991.91;20822385;28;20084;-66
2022/08/07 05:29:01;;;;;;;2.42;0.75;;;;;;;14.91;58.97;100990.50;20820206;28;20076;-67
2022/08/07 05:39:04;;;;;;;4.07;0.80;;;;;;;15.28;58.22;100984.28;20819157;28;20634;-66
2022/08/07 05:49:25;;;;;;;2.67;0.63;;;;;;;15.60;56.81;100992.22;20820266;28;20660;-66
2022/08/07 05:59:40;;;;;;;4.55;0.93;;;;;;;15.96;55.38;100994.81;20817714;28;20139;-66
2022/08/07 06:09:58;;;;;;;2.70;0.75;;;;;;;16.27;54.46;101007.97;20815930;28;20057;-66
2022/08/07 06:20:06;;;;;;;2.08;0.55;;;;;;;16.52;53.49;101013.38;20816970;28;20559;-66
2022/08/07 06:30:25;;;;;;;3.03;0.73;;;;;;;16.70;52.50;101016.41;20815185;28;20041;-66
2022/08/07 06:40:38;;;;;;;5.20;0.85;;;;;;;17.06;52.04;101009.97;20814151;28;20045;-67
2022/08/07 06:50:46;;;;;;;6.55;0.80;;;;;;;17.12;52.05;101015.06;20814581;28;20057;-66
2022/08/07 07:00:48;;;;;;;1.83;0.57;;;;;;;17.46;51.52;100998.03;20813280;28;20069;-67
2022/08/07 07:10:53;;;;;;;3.08;1.10;;;;;;;17.79;51.59;100995.16;20813356;28;20169;-67
2022/08/07 07:20:57;;;;;;;3.43;1.10;;;;;;;17.92;51.62;100993.78;20892230;28;20037;-67
2022/08/07 07:30:59;;;;;;;3.75;1.33;;;;;;;18.20;52.55;100990.94;20990006;22;20843;-65
2022/08/07 07:41:00;;;;;;;5.22;1.30;;;;;;;18.65;51.03;100987.47;20891208;28;20055;-64
2022/08/07 07:51:02;;;;;;;6.20;1.33;;;;;;;18.86;51.25;100988.41;20892254;28;20091;-64
2022/08/07 08:01:08;;;;;;;4.20;1.20;;;;;;;19.18;51.00;100985.28;20894342;28;20417;-63
2022/08/07 08:11:29;;;;;;;3.40;1.25;;;;;;;19.60;50.36;100968.47;20895073;28;20107;-64
2022/08/07 08:32:11;;;;;;;3.17;1.23;;;;;;;20.27;50.16;100956.56;20907538;28;20052;-65
2022/08/07 08:42:25;;;;;;;6.40;1.50;;;;;;;20.90;48.33;100945.56;20905428;28;20139;-65
2022/08/07 08:52:26;;;;;;;2.67;1.38;;;;;;;21.07;48.36;100944.72;20907210;28;20056;-64
2022/08/07 09:02:32;;;;;;;2.70;1.52;;;;;;;21.35;48.26;100939.72;20906831;28;20049;-64
2022/08/07 09:12:37;;;;;;;4.47;1.55;;;;;;;21.90;46.55;100928.81;20906079;28;20143;-64
2022/08/07 09:22:40;;;;;;;3.30;1.30;;;;;;;22.43;45.21;100919.66;20905961;28;20048;-64
2022/08/07 09:33:01;;;;;;;3.35;1.50;;;;;;;22.47;45.22;100917.66;20904256;28;20472;-64
2022/08/07 09:43:16;;;;;;;2.83;1.40;;;;;;;22.69;44.20;100899.47;20904048;28;20091;-63
2022/08/07 09:53:19;;;;;;;4.00;1.50;;;;;;;23.22;43.15;100891.91;20904572;28;20059;-63
2022/08/07 10:03:21;;;;;;;3.70;1.70;;;;;;;23.23;42.96;100866.91;20901915;28;20057;-63
2022/08/07 10:13:43;;;;;;;5.22;1.75;;;;;;;23.80;39.79;100858.91;20901697;28;20840;-63
2022/08/07 10:24:02;;;;;;;2.50;1.25;;;;;;;24.21;40.42;100839.34;20900657;28;20083;-64
2022/08/07 10:34:07;;;;;;;3.28;1.20;;;;;;;24.47;35.61;100824.25;20898775;28;20045;-64
2022/08/07 10:44:19;;;;;;;2.42;1.10;;;;;;;24.83;35.27;100812.88;20897595;28;20152;-64
2022/08/07 10:54:38;;;;;;;1.15;0.77;;;;;;;25.52;32.99;100800.03;20898266;28;20045;-63
2022/08/07 11:04:39;;;;;;;5.55;0.93;;;;;;;25.62;30.88;100798.38;20863067;28;20060;-64
2022/08/07 11:14:41;;;;;;;1.83;0.68;;;;;;;25.44;32.04;100789.88;20814304;28;20060;-65
2022/08/07 11:25:01;;;;;;;3.42;0.70;;;;;;;25.67;27.29;100768.56;20814257;28;20061;-65
2022/08/07 11:35:07;;;;;;;3.30;0.80;;;;;;;25.46;27.05;100766.47;20812454;28;20422;-64
2022/08/07 11:45:09;;;;;;;2.05;0.70;;;;;;;25.91;26.74;100750.69;20812336;28;20140;-64
2022/08/07 11:55:12;;;;;;;2.83;0.70;;;;;;;25.95;27.11;100746.81;20820210;28;20516;-65
2022/08/07 12:05:33;;;;;;;1.90;0.57;;;;;;;25.67;27.16;100742.59;20827447;28;20076;-65
2022/08/07 12:15:49;;;;;;;1.05;0.60;;;;;;;25.84;27.50;100736.88;20827050;28;20049;-64
2022/08/07 12:26:07;;;;;;;1.45;0.55;;;;;;;25.79;25.78;100731.00;20826450;28;20060;-64
2022/08/07 12:36:28;;;;;;;2.60;0.85;;;;;;;26.21;25.32;100715.34;20827797;28;20486;-64
2022/08/07 12:46:33;;;;;;;3.45;0.50;;;;;;;26.44;24.70;100707.34;20907385;28;20107;-65
2022/08/07 12:56:38;;;;;;;1.52;0.50;;;;;;;26.47;25.50;100699.06;20907351;28;20140;-66
2022/08/07 13:06:39;;;;;;;2.97;0.70;;;;;;;26.32;25.27;100691.19;20904720;28;20053;-65
2022/08/07 13:17:01;;;;;;;1.95;0.50;;;;;;;26.38;24.44;100689.00;20906540;28;20114;-66
2022/08/07 13:27:04;;;;;;;2.60;0.77;;;;;;;26.62;23.84;100675.53;20943035;22;20052;-72
2022/08/07 13:37:06;;;;;;;;;;;;;;;26.72;23.77;100650.50;20903793;28;20057;-71
2022/08/07 13:47:19;;;;;;;1.67;0.30;;;;;;;26.95;23.05;100663.94;20903773;28;19942;-70
2022/08/07 13:57:25;;;;;;;1.27;0.47;;;;;;;26.84;23.52;100636.13;20902737;28;20110;-69
2022/08/07 14:07:37;;;;;;;4.80;0.55;;;;;;;27.08;23.25;100621.72;20900730;28;20077;-78
2022/08/07 14:17:59;;;;;;;2.40;0.52;;;;;;;27.36;22.92;100618.47;20900249;28;20060;-70
2022/08/07 14:28:20;;;;;;;2.72;0.50;;;;;;;27.08;22.04;100614.50;20885908;28;20057;-69
2022/08/07 14:38:43;;;;;;;2.72;0.50;;;;;;;27.11;21.69;100610.69;20897131;28;20049;-70
2022/08/07 14:48:50;;;;;;;1.80;0.47;;;;;;;27.52;22.01;100592.97;20897982;28;20059;-69
2022/08/07 14:58:53;;;;;;;2.55;0.57;;;;;;;27.33;22.30;100591.81;20897839;28;20417;-69
2022/08/07 15:09:17;;;;;;;0.40;0.30;;;;;;;27.44;22.20;100590.06;20896031;28;20049;-69
2022/08/07 15:19:39;;;;;;;1.52;0.40;;;;;;;27.25;21.97;100579.97;20897285;28;20103;-69
2022/08/07 15:30:00;;;;;;;2.95;0.60;;;;;;;27.43;21.58;100580.31;20910046;28;20053;-69
2022/08/07 15:40:15;;;;;;;3.28;0.47;;;;;;;27.48;21.78;100576.25;20921762;28;20135;-69
2022/08/07 15:50:35;;;;;;;1.75;0.52;;;;;;;27.40;21.96;100559.03;20922041;28;20091;-70
2022/08/07 16:00:56;;;;;;;4.93;0.85;;;;;;;27.48;22.77;100556.56;20923399;28;20095;-70
2022/08/07 16:10:57;;;;;;;1.30;0.55;;;;;;;27.53;22.62;100543.56;20917291;28;20048;-69
2022/08/07 16:20:59;;;;;;;2.17;0.68;;;;;;;27.72;23.01;100543.75;20918452;28;20139;-69
2022/08/07 16:31:20;;;;;;;5.72;0.77;;;;;;;27.84;22.81;100537.34;20919100;28;20576;-69
2022/08/07 16:41:42;;;;;;;3.72;0.60;;;;;;;27.70;23.14;100540.31;20911151;28;20045;-69
2022/08/07 16:51:54;;;;;;;1.67;0.52;;;;;;;27.49;22.73;100534.91;20904727;28;20473;-69
2022/08/07 17:02:15;;;;;;;1.88;0.70;;;;;;;27.24;23.70;100538.81;20904022;28;20076;-69
2022/08/07 17:12:37;;;;;;;3.42;0.70;;;;;;;27.47;23.46;100541.41;20903201;28;20057;-68
2022/08/07 17:22:45;;;;;;;1.85;0.60;;;;;;;27.36;23.46;100553.94;20905584;28;20106;-68
2022/08/07 17:32:47;;;;;;;2.45;0.70;;;;;;;27.08;24.13;100543.75;20902175;28;20052;-68
2022/08/07 17:42:53;;;;;;;2.03;0.52;;;;;;;26.96;24.05;100555.47;20901227;28;20044;-68
2022/08/07 17:53:00;;;;;;;2.10;0.50;;;;;;;26.75;24.57;100556.25;20899915;28;20045;-68
2022/08/07 18:03:07;;;;;;;2.70;0.50;;;;;;;26.74;24.84;100567.97;20899389;28;20124;-69
2022/08/07 18:13:09;;;;;;;2.45;0.77;;;;;;;26.20;26.14;100570.50;20898228;28;20049;-69
2022/08/07 18:23:15;;;;;;;2.30;0.65;;;;;;;25.81;26.86;100573.47;20898150;28;20082;-70
2022/08/07 18:33:37;;;;;;;2.95;0.90;;;;;;;25.20;28.19;100586.13;20897789;28;20045;-69
2022/08/07 18:43:55;;;;;;;4.35;0.80;;;;;;;24.70;29.28;100601.31;20895935;28;20049;-70
2022/08/07 18:53:58;;;;;;;1.30;0.63;;;;;;;24.30;30.32;100622.84;20895379;28;20075;-70
2022/08/07 19:04:01;;;;;;;2.08;0.70;;;;;;;24.00;30.64;100628.50;20893053;28;20045;-72
2022/08/07 19:14:09;;;;;;;2.15;0.52;;;;;;;23.67;31.42;100644.97;20892876;28;20057;-68
2022/08/07 19:24:17;;;;;;;1.83;0.70;;;;;;;23.17;32.70;100654.44;20894195;28;20053;-70
2022/08/07 19:34:32;;;;;;;3.05;0.55;;;;;;;22.97;32.61;100666.41;20913667;22;20061;-78
2022/08/07 19:44:38;;;;;;;2.53;0.50;;;;;;;22.77;32.77;100670.28;20875377;28;20143;-75
2022/08/07 19:54:42;;;;;;;1.38;0.63;;;;;;;22.61;33.12;100685.50;20879718;28;20060;-76
2022/08/07 20:04:57;;;;;;;1.08;0.60;;;;;;;22.40;33.49;100690.34;20880398;28;20052;-78
2022/08/07 20:15:01;;;;;;;2.40;0.97;;;;;;;22.21;34.05;100689.75;20892120;28;20511;-75
2022/08/07 20:25:05;;;;;;;2.55;0.80;;;;;;;21.96;34.54;100693.81;20900614;28;20049;-75
2022/08/07 20:35:20;;;;;;;2.40;0.52;;;;;;;21.77;35.31;100696.69;20899964;28;20155;-76
2022/08/07 20:45:27;;;;;;;4.88;0.70;;;;;;;21.74;35.13;100696.00;20898562;28;20041;-78
2022/08/07 20:55:48;;;;;;;3.47;0.75;;;;;;;21.47;35.62;100693.97;20897387;28;20491;-74
2022/08/07 21:05:52;;;;;;;2.50;0.60;;;;;;;21.37;35.97;100691.94;20897307;28;20489;-74
2022/08/07 21:15:57;;;;;;;;;;;;;;;21.27;36.29;100691.50;20897612;28;20052;-77
2022/08/07 21:26:01;;;;;;;3.35;0.93;;;;;;;21.14;36.45;100683.38;20895363;28;19968;-75
2022/08/07 21:36:03;;;;;;;3.53;0.90;;;;;;;20.85;37.48;100670.78;20895470;28;20048;-74
2022/08/07 21:46:24;;;;;;;3.15;0.90;;;;;;;20.68;37.67;100677.84;20895997;28;20048;-74
2022/08/07 21:56:33;;;;;;;5.03;1.00;;;;;;;20.47;38.23;100687.00;20893502;28;20041;-74
2022/08/07 22:06:40;;;;;;;4.18;0.80;;;;;;;20.29;38.87;100685.25;20897257;28;20716;-74
2022/08/07 22:16:45;;;;;;;2.15;0.75;;;;;;;20.00;40.05;100700.88;20896383;28;20448;-75
2022/08/07 22:26:48;;;;;;;3.25;1.00;;;;;;;19.78;41.21;100706.38;20894545;28;20069;-75
2022/08/07 22:36:49;;;;;;;3.30;0.88;;;;;;;19.25;42.50;100708.91;20893213;28;20056;-75
2022/08/07 22:46:53;;;;;;;3.40;0.75;;;;;;;19.16;42.40;100713.75;20892802;28;20133;-76
2022/08/07 22:57:06;;;;;;;2.78;1.15;;;;;;;19.09;42.17;100717.59;20893520;28;20045;-76
2022/08/07 23:07:10;;;;;;;1.75;0.95;;;;;;;19.02;42.34;100721.47;20892223;28;20029;-76
2022/08/07 23:17:31;;;;;;;4.97;1.38;;;;;;;18.75;43.35;100728.00;20891466;28;20049;-75
2022/08/07 23:27:33;;;;;;;1.63;0.70;;;;;;;18.67;43.34;100718.56;20891328;28;20045;-75
2022/08/07 23:37:34;;;;;;;2.67;0.80;;;;;;;18.61;43.34;100732.09;20889891;28;20063;-76
2022/08/07 23:47:37;;;;;;;1.60;0.90;;;;;;;18.40;44.03;100718.00;20892841;28;20456;-76
2022/08/07 23:57:48;;;;;;;1.80;1.05;;;;;;;18.16;44.76;100733.16;20906487;28;20049;-76
